Flight Track Log - Related Links

Times and Time Zones

All times are in EDT time to prevent confusion due to time zone crossing. See the WAL682 flight status page for this flight to view local times or setup timezone preferences in your user account.

Time Position Orientation Groundspeed Altitude Reporting Facility
EDT Latitude Longitude Course Direction KTS MPH feet Rate Location/Type
Wed 04:34:27 PM -33.9087 150.9625 284° West 116 133 600  Level Aus ATC (RADAR)
Wed 04:35:57 PM -33.8960 150.9022 284° West 127 146 1,700 735 Climbing Aus ATC (RADAR)
Wed 04:37:02 PM -33.8951 150.8528 271° West 133 153 2,500 804 Climbing Aus ATC (RADAR)
Wed 04:38:56 PM -33.8937 150.7638 271° West 134 154 4,100 824 Climbing Aus ATC (RADAR)
Wed 04:40:04 PM -33.8927 150.7138 271° West 130 150 5,000 343 Climbing Aus ATC (RADAR)
Wed 04:41:16 PM -33.8915 150.6462 271° West 163 188 4,900 350 Descending Aus ATC (RADAR)
Wed 04:42:21 PM -33.8905 150.5896 271° West 144 166 5,800 816 Climbing Aus ATC (RADAR)
Wed 04:43:21 PM -33.8893 150.5415 272° West 139 160 6,600 864 Climbing Aus ATC (RADAR)
Wed 04:44:26 PM -33.8890 150.4907 270° West 134 154 7,600 624 Climbing Aus ATC (RADAR)
Wed 04:45:26 PM -33.8881 150.4398 271° West 155 178 7,900 144 Climbing Aus ATC (RADAR)
Wed 04:46:31 PM -33.8869 150.3733 271° West 181 208 7,900 32 Level Aus ATC (RADAR)
Wed 04:48:36 PM -33.8848 150.2468 271° West 174 200 8,000 32 Climbing Aus ATC (RADAR)
Wed 04:49:40 PM -33.8832 150.1813 272° West 176 203 8,000 -36 Level Aus ATC (RADAR)
Wed 04:51:25 PM -33.8802 150.0748 272° West 178 205 7,900 -35 Descending Aus ATC (RADAR)
Wed 04:52:30 PM -33.8785 150.0089 272° West 176 203 7,900  Level Aus ATC (RADAR)
Wed 04:54:15 PM -33.8781 149.9040 270° West 173 199 7,900  Level Aus ATC (RADAR)
Wed 04:55:20 PM -33.8767 149.8401 272° West 172 198 7,900 44 Level Aus ATC (RADAR)
Wed 04:56:30 PM -33.8748 149.7718 272° West 171 197 8,000 48 Climbing Aus ATC (RADAR)
Wed 04:57:25 PM -33.8730 149.7184 272° West 170 196 8,000  Level Aus ATC (RADAR)
Wed 04:58:25 PM -33.8718 149.6592 271° West 173 199 8,000  Level Aus ATC (RADAR)
Wed 04:59:45 PM -33.8693 149.5799 272° West 174 200 8,000  Level Aus ATC (RADAR)
Wed 05:01:34 PM -33.8678 149.4693 271° West 176 203 8,000 -168 Level Aus ATC (RADAR)
Wed 05:02:44 PM -33.8674 149.3967 270° West 187 215 7,500 -424 Descending Aus ATC (RADAR)
Wed 05:02:59 PM -33.8669 149.3811 272° West 184 212 7,400 -500 Descending Aus ATC (RADAR)
Wed 05:03:44 PM -33.8661 149.3330 271° West 188 216 7,000 -525 Descending Aus ATC (RADAR)
Wed 05:04:19 PM -33.8642 149.2976 274° West 181 208 6,700 -554 Descending Aus ATC (RADAR)
Wed 05:04:49 PM -33.8633 149.2655 272° West 187 215 6,400 -514 Descending Aus ATC (RADAR)
Wed 05:06:04 PM -33.8603 149.1863 273° West 188 216 5,800 -467 Descending Aus ATC (RADAR)
Wed 05:06:19 PM -33.8598 149.1712 272° West 184 212 5,700 -533 Descending Aus ATC (RADAR)
Wed 05:06:49 PM -33.8596 149.1407 270° West 181 208 5,400 -554 Descending Aus ATC (RADAR)
Wed 05:07:24 PM -33.8593 149.1051 271° West 180 207 5,100 -429 Descending Aus ATC (RADAR)
Wed 05:07:59 PM -33.8583 149.0704 272° West 177 204 4,900 -514 Descending Aus ATC (RADAR)
Wed 05:08:34 PM -33.8571 149.0354 272° West 177 204 4,500 -514 Descending Aus ATC (RADAR)
Wed 05:09:09 PM -33.8560 149.0014 272° West 174 200 4,300 -480 Descending Aus ATC (RADAR)
Wed 05:09:49 PM -33.8549 148.9624 272° West 172 198 3,900 -646 Descending Aus ATC (RADAR)
Wed 05:10:14 PM -33.8543 148.9379 272° West 173 199 3,600 -600 Descending Aus ATC (RADAR)
Wed 05:10:29 PM -33.8539 148.9237 272° West 173 199 3,500 -400 Descending Aus ATC (RADAR)
Wed 05:13:38 PM -33.8517 148.8550 271° West 100 -1,079 Descending Aus ATC (Calculated)
Wed 05:15:00 PM -33.8504 148.7820 271° West  Level FlightAware Approximate
Wed 05:16:00 PM -33.8494 148.7286 271° West  Level FlightAware Approximate
Wed 05:17:00 PM -33.8485 148.6752 271° West  Level FlightAware Approximate
Wed 05:18:00 PM -33.8447 148.6489 271° West  Level Estimated
Wed 05:19:00 PM -33.8479 148.6455 272° West  Level FlightAware Approximate
Wed 05:20:00 PM -33.8447 148.6489 272° West  Level Estimated
Wed 05:21:00 PM -33.8479 148.6455 272° West  Level FlightAware Approximate
Wed 05:22:00 PM -33.8447 148.6489 272° West  Level Estimated
Wed 05:23:00 PM -33.8479 148.6455 272° West  Level FlightAware Approximate
Wed 05:24:00 PM -33.8447 148.6489 272° West  Level Estimated
Wed 05:25:00 PM -33.8479 148.6455 272° West  Level FlightAware Approximate
Wed 05:26:00 PM -33.8447 148.6489 272° West  Level Estimated
Wed 05:27:00 PM -33.8479 148.6455 272° West  Level FlightAware Approximate
Wed 05:28:00 PM -33.8447 148.6489 272° West  Level Estimated
Wed 05:29:00 PM -33.8479 148.6455 272° West  Level FlightAware Approximate
Wed 05:30:00 PM -33.8447 148.6489 272° West  Level Estimated
Wed 05:31:00 PM -33.8479 148.6455 272° West  Level FlightAware Approximate
Wed 05:32:00 PM -33.8447 148.6489 272° West  Level Estimated
Wed 05:33:00 PM -33.8479 148.6455 272° West  Level FlightAware Approximate

Login

Don't have an account? Register now (free) for customized features, flight alerts, and more!